Time;durP1;ratioP1;P1;durP2;ratioP2;P2;SDS_P1;SDS_P2;PMS_P1;PMS_P2;Temp;Humidity;BMP_temperature;BMP_pressure;BME280_temperature;BME280_humidity;BME280_pressure;Samples;Min_cycle;Max_cycle;Signal;HPM_P1;HPM_P2
2023/01/22 00:01:03;;;;;;;1.27;1.27;;;-1.70;99.90;;;;;;5127573;28;20241;-69
2023/01/22 00:03:31;;;;;;;0.50;0.50;;;-1.70;99.90;;;;;;5127632;28;20207;-69
2023/01/22 00:05:58;;;;;;;0.40;0.40;;;-1.70;99.90;;;;;;5128132;28;20221;-69
2023/01/22 00:08:25;;;;;;;2.53;1.77;;;-1.70;99.90;;;;;;5127813;28;20208;-70
2023/01/22 00:10:53;;;;;;;1.45;1.45;;;-1.70;99.90;;;;;;5127539;28;20224;-68
2023/01/22 00:13:21;;;;;;;0.95;0.82;;;-1.60;99.90;;;;;;5128554;28;20201;-70
2023/01/22 00:15:48;;;;;;;1.30;1.30;;;-1.70;99.90;;;;;;5127703;27;20223;-70
2023/01/22 00:18:15;;;;;;;1.48;1.38;;;-1.70;99.90;;;;;;5129989;27;20547;-69
2023/01/22 00:20:46;;;;;;;2.15;0.82;;;-1.70;99.90;;;;;;5130794;27;20235;-69
2023/01/22 00:23:13;;;;;;;0.95;0.95;;;-1.70;99.90;;;;;;5132573;27;20566;-70
2023/01/22 00:25:40;;;;;;;1.42;1.42;;;0.70;99.90;;;;;;5130448;27;20706;-69
2023/01/22 00:28:07;;;;;;;0.60;0.60;;;-1.70;99.90;;;;;;5131229;27;20202;-68
2023/01/22 00:30:34;;;;;;;1.75;1.15;;;-1.70;99.90;;;;;;5130812;27;20231;-68
2023/01/22 00:33:01;;;;;;;0.85;0.85;;;-1.70;99.90;;;;;;5131803;27;20281;-69
2023/01/22 00:35:27;;;;;;;0.30;0.30;;;-1.70;99.90;;;;;;5131375;27;20427;-69
2023/01/22 00:37:55;;;;;;;0.93;0.93;;;-1.70;99.90;;;;;;5118763;27;20204;-69
2023/01/22 00:40:22;;;;;;;2.15;1.30;;;-1.60;99.90;;;;;;5113000;27;20248;-69
2023/01/22 00:42:49;;;;;;;0.57;0.57;;;-1.70;99.90;;;;;;5126278;27;20576;-68
2023/01/22 00:45:16;;;;;;;1.02;0.88;;;-1.60;99.90;;;;;;5130612;27;20197;-69
2023/01/22 00:47:43;;;;;;;1.58;1.48;;;-1.60;99.90;;;;;;5131712;27;20258;-69
2023/01/22 00:50:11;;;;;;;1.42;1.33;;;-1.60;99.90;;;;;;5121575;27;20536;-70
2023/01/22 00:52:38;;;;;;;0.75;0.75;;;-1.50;99.90;;;;;;5130958;27;20407;-69
2023/01/22 00:55:07;;;;;;;1.33;0.70;;;-1.50;99.90;;;;;;5130790;27;20197;-69
2023/01/22 00:57:34;;;;;;;1.08;0.98;;;-1.50;99.90;;;;;;5130826;27;20205;-70
2023/01/22 01:00:01;;;;;;;1.25;1.25;;;-1.60;99.90;;;;;;5129942;27;20223;-69
2023/01/22 01:02:27;;;;;;;1.55;1.55;;;-1.50;99.90;;;;;;5131163;27;20224;-69
2023/01/22 01:04:55;;;;;;;0.40;0.40;;;-1.60;99.90;;;;;;5131319;27;20201;-68
2023/01/22 01:07:22;;;;;;;5.97;1.40;;;-1.60;99.90;;;;;;5130100;27;20785;-69
2023/01/22 01:09:49;;;;;;;0.40;0.40;;;-1.60;99.90;;;;;;5129972;27;20549;-69
2023/01/22 01:12:17;;;;;;;1.10;1.00;;;-1.50;99.90;;;;;;5130099;27;20959;-70
2023/01/22 01:14:44;;;;;;;1.20;0.98;;;-1.50;99.90;;;;;;5131167;27;20190;-69
2023/01/22 01:17:10;;;;;;;2.67;2.58;;;-1.50;99.90;;;;;;5129976;27;20238;-69
2023/01/22 01:19:37;;;;;;;3.53;1.23;;;-1.40;99.90;;;;;;5129936;27;20195;-69
2023/01/22 01:22:05;;;;;;;3.42;1.88;;;-1.50;99.90;;;;;;5130226;27;20221;-68
2023/01/22 01:24:31;;;;;;;0.82;0.82;;;-1.50;99.90;;;;;;5130502;27;20202;-69
2023/01/22 01:26:58;;;;;;;0.82;0.82;;;-1.30;99.90;;;;;;5130153;27;20560;-71
2023/01/22 01:29:26;;;;;;;1.75;0.73;;;-1.40;99.90;;;;;;5129648;27;20665;-69
2023/01/22 01:31:53;;;;;;;1.10;1.10;;;-1.40;99.90;;;;;;5130202;27;20250;-69
2023/01/22 01:34:20;;;;;;;1.98;1.27;;;-1.40;99.90;;;;;;5130619;27;20195;-70
2023/01/22 01:36:47;;;;;;;1.33;1.02;;;-1.40;99.90;;;;;;5129991;27;20217;-68
2023/01/22 01:39:13;;;;;;;1.70;0.68;;;-1.40;99.90;;;;;;5120683;27;20567;-69
2023/01/22 01:41:40;;;;;;;2.30;0.57;;;-1.40;99.90;;;;;;5121622;27;20260;-69
2023/01/22 01:44:13;;;;;;;1.33;1.30;;;-1.30;99.90;;;;;;5130814;27;20201;-69
2023/01/22 01:46:46;;;;;;;0.40;0.40;;;-1.30;99.90;;;;;;5130123;27;20224;-69
2023/01/22 01:49:26;;;;;;;1.75;1.65;;;-1.30;99.90;;;;;;5130295;27;20334;-70
2023/01/22 01:51:55;;;;;;;1.15;1.15;;;-1.90;99.90;;;;;;5129527;27;20224;-69
2023/01/22 01:54:21;;;;;;;0.30;0.30;;;-1.30;99.90;;;;;;5130244;27;20193;-68
2023/01/22 01:56:52;;;;;;;2.08;1.85;;;-1.20;99.90;;;;;;5129534;27;20226;-69
2023/01/22 01:59:21;;;;;;;0.73;0.73;;;-1.30;99.90;;;;;;5129779;27;20199;-69
2023/01/22 02:01:53;;;;;;;0.65;0.65;;;-1.40;99.90;;;;;;5129322;27;20241;-70
2023/01/22 02:04:21;;;;;;;0.98;0.98;;;-1.40;99.90;;;;;;5129160;27;20565;-69
2023/01/22 02:06:48;;;;;;;1.65;1.55;;;-1.30;99.90;;;;;;5129148;27;20775;-69
2023/01/22 02:09:15;;;;;;;1.88;1.77;;;-1.30;99.90;;;;;;5128281;27;20199;-69
2023/01/22 02:11:42;;;;;;;2.47;1.70;;;-1.20;99.90;;;;;;5128929;27;20332;-69
2023/01/22 02:14:13;;;;;;;0.73;0.73;;;-1.30;99.90;;;;;;5129520;27;20709;-70
2023/01/22 02:16:41;;;;;;;0.77;0.77;;;;;;;;;;5128497;27;20225;-68
2023/01/22 02:19:10;;;;;;;1.63;1.20;;;-1.30;99.90;;;;;;5129051;27;20207;-68
2023/01/22 02:21:41;;;;;;;0.40;0.40;;;-1.40;99.90;;;;;;5128422;27;20239;-69
2023/01/22 02:24:13;;;;;;;2.65;1.67;;;-1.30;99.90;;;;;;5129875;27;20212;-69
2023/01/22 02:26:42;;;;;;;2.80;2.60;;;-1.40;99.90;;;;;;5128036;27;20220;-70
2023/01/22 02:29:11;;;;;;;0.85;0.85;;;-1.30;99.90;;;;;;5128654;27;20549;-70
2023/01/22 02:31:39;;;;;;;1.02;1.02;;;-1.40;99.90;;;;;;5129429;27;20231;-69
2023/01/22 02:34:07;;;;;;;0.50;0.50;;;-1.30;99.90;;;;;;5129434;27;20311;-69
2023/01/22 02:36:37;;;;;;;1.00;1.00;;;-1.30;99.90;;;;;;5128790;27;20244;-69
2023/01/22 02:39:06;;;;;;;1.27;1.20;;;-1.30;99.90;;;;;;5122893;27;20207;-68
2023/01/22 02:41:33;;;;;;;2.45;1.85;;;-1.20;99.90;;;;;;5118964;27;20652;-69
2023/01/22 02:44:02;;;;;;;6.15;2.00;;;-1.10;99.90;;;;;;5129161;27;20254;-69
2023/01/22 02:46:29;;;;;;;3.20;1.77;;;-1.10;99.90;;;;;;5129091;27;20220;-69
2023/01/22 02:48:56;;;;;;;4.43;1.42;;;-1.20;99.90;;;;;;5128898;27;20200;-69
2023/01/22 02:51:25;;;;;;;1.63;1.15;;;-1.10;99.90;;;;;;5128387;27;20792;-69
2023/01/22 02:53:54;;;;;;;1.73;1.60;;;-1.10;99.90;;;;;;5128876;27;20225;-71
2023/01/22 02:56:23;;;;;;;1.13;1.13;;;-1.10;99.90;;;;;;5127920;27;20236;-69
2023/01/22 02:58:51;;;;;;;1.77;0.85;;;-1.20;99.90;;;;;;5127823;27;20206;-69
2023/01/22 03:01:20;;;;;;;0.40;0.40;;;-1.30;99.90;;;;;;5128503;27;20319;-69
2023/01/22 03:03:47;;;;;;;1.15;1.15;;;-1.30;99.90;;;;;;5129006;27;20252;-70
2023/01/22 03:06:14;;;;;;;1.02;0.80;;;-1.30;99.90;;;;;;5128234;27;20736;-69
2023/01/22 03:08:43;;;;;;;1.75;1.65;;;-1.20;99.90;;;;;;5127711;27;20195;-69
2023/01/22 03:11:10;;;;;;;3.30;2.17;;;-1.20;99.90;;;;;;5127662;27;20572;-68
2023/01/22 03:21:52;;;;;;;0.60;0.60;;;-1.20;99.90;;;;;;5121173;27;20335;-69
2023/01/22 03:24:20;;;;;;;1.95;1.15;;;-1.30;99.90;;;;;;5128536;27;20671;-69
2023/01/22 03:26:48;;;;;;;5.97;1.83;;;-1.20;99.90;;;;;;5128086;27;20423;-69
2023/01/22 03:29:17;;;;;;;3.22;2.58;;;-1.10;99.90;;;;;;5127822;27;20199;-69
2023/01/22 03:31:47;;;;;;;0.95;0.95;;;-1.10;99.90;;;;;;5127749;28;20213;-69
2023/01/22 03:34:14;;;;;;;0.60;0.60;;;-0.90;99.90;;;;;;5128176;28;20203;-70
2023/01/22 03:36:41;;;;;;;1.77;1.42;;;-0.90;99.90;;;;;;5125744;28;20223;-69
2023/01/22 03:39:10;;;;;;;2.45;1.25;;;-1.00;99.90;;;;;;5114040;28;20193;-70
2023/01/22 03:41:37;;;;;;;0.63;0.63;;;-1.10;99.90;;;;;;5127531;28;20754;-69
2023/01/22 03:44:08;;;;;;;1.13;1.02;;;-1.10;99.90;;;;;;5128272;28;20257;-70
2023/01/22 03:46:38;;;;;;;1.15;1.05;;;-1.10;99.90;;;;;;5127581;28;20270;-68
2023/01/22 03:49:06;;;;;;;2.95;1.75;;;-1.20;99.90;;;;;;5128023;28;20200;-69
2023/01/22 03:51:34;;;;;;;0.80;0.80;;;-1.20;99.90;;;;;;5129047;27;20225;-70
2023/01/22 03:54:03;;;;;;;0.70;0.70;;;-1.20;99.90;;;;;;5132735;27;20207;-69
2023/01/22 03:56:31;;;;;;;2.15;1.00;;;-1.20;99.90;;;;;;5131695;27;20223;-67
2023/01/22 03:58:59;;;;;;;2.38;1.65;;;-1.20;99.90;;;;;;5131313;27;20539;-69
2023/01/22 04:01:28;;;;;;;1.35;0.60;;;-1.10;99.90;;;;;;5131351;27;20316;-69
2023/01/22 04:03:56;;;;;;;1.75;1.05;;;-1.10;99.90;;;;;;5132645;27;20200;-68
2023/01/22 04:06:24;;;;;;;1.08;0.98;;;-1.10;99.90;;;;;;5131829;27;20308;-69
2023/01/22 04:08:53;;;;;;;1.70;1.55;;;-1.00;99.90;;;;;;5131620;27;20257;-69
2023/01/22 04:11:20;;;;;;;1.75;1.65;;;-1.10;99.90;;;;;;5131260;27;20438;-70
2023/01/22 04:13:47;;;;;;;2.15;2.05;;;-1.20;99.90;;;;;;5131829;27;20234;-70
2023/01/22 04:16:16;;;;;;;1.23;1.13;;;-1.00;99.90;;;;;;5131056;27;20659;-70
2023/01/22 04:18:43;;;;;;;6.82;1.13;;;-1.00;99.90;;;;;;5131175;27;20205;-68
2023/01/22 04:21:11;;;;;;;5.13;4.45;;;-1.10;99.90;;;;;;5131775;27;20314;-69
2023/01/22 04:23:38;;;;;;;1.65;1.58;;;-1.00;99.90;;;;;;5132551;27;20697;-69
2023/01/22 04:26:05;;;;;;;5.97;2.50;;;-1.10;99.90;;;;;;5130833;27;20266;-69
2023/01/22 04:28:32;;;;;;;2.55;2.35;;;-1.20;99.90;;;;;;5130856;27;20245;-68
2023/01/22 04:30:59;;;;;;;1.10;1.00;;;-1.20;99.90;;;;;;5130889;27;20692;-70
2023/01/22 04:33:26;;;;;;;0.98;0.95;;;-1.20;99.90;;;;;;5131680;27;20658;-70
2023/01/22 04:35:55;;;;;;;1.48;1.38;;;-1.20;99.90;;;;;;5130853;27;20231;-70
2023/01/22 04:38:23;;;;;;;0.88;0.88;;;-1.20;99.90;;;;;;5126793;27;20300;-69
2023/01/22 04:40:50;;;;;;;2.38;1.98;;;-1.00;99.90;;;;;;5124281;27;20655;-68
2023/01/22 04:43:17;;;;;;;0.93;0.93;;;-1.00;99.90;;;;;;5131828;27;20195;-69
2023/01/22 04:45:43;;;;;;;6.57;2.80;;;-1.10;99.90;;;;;;5131279;27;20595;-69
2023/01/22 04:48:11;;;;;;;2.58;2.47;;;-1.00;99.90;;;;;;5131055;27;20200;-69
2023/01/22 04:50:38;;;;;;;1.10;0.85;;;-1.00;99.90;;;;;;5130844;27;20221;-69
2023/01/22 04:53:05;;;;;;;1.08;1.00;;;-1.00;99.90;;;;;;5131006;27;20207;-69
2023/01/22 04:55:33;;;;;;;0.93;0.93;;;-1.00;99.90;;;;;;5130496;27;20457;-69
2023/01/22 04:58:01;;;;;;;1.17;1.08;;;-1.10;99.90;;;;;;5130952;27;20932;-69
2023/01/22 05:00:29;;;;;;;0.88;0.88;;;-1.00;99.90;;;;;;5130176;27;20666;-69
2023/01/22 05:02:57;;;;;;;1.05;1.05;;;-1.00;99.90;;;;;;5130737;27;20229;-68
2023/01/22 05:05:24;;;;;;;3.28;1.98;;;-0.90;99.90;;;;;;5124439;27;20693;-70
2023/01/22 05:07:51;;;;;;;0.77;0.77;;;-0.90;99.90;;;;;;5130473;27;20196;-69
2023/01/22 05:10:18;;;;;;;3.38;2.85;;;-0.80;99.90;;;;;;5130106;27;20620;-69
2023/01/22 05:12:46;;;;;;;0.77;0.77;;;-0.80;99.90;;;;;;5130620;27;20707;-69
2023/01/22 05:15:13;;;;;;;0.90;0.90;;;-0.90;99.90;;;;;;5130507;27;20644;-69
2023/01/22 05:17:40;;;;;;;1.75;1.67;;;-0.90;99.90;;;;;;5129638;27;20292;-69
2023/01/22 05:20:08;;;;;;;0.43;0.43;;;-0.90;99.90;;;;;;5129458;27;20197;-69
2023/01/22 05:22:35;;;;;;;1.45;1.30;;;-0.20;99.90;;;;;;5130758;27;20227;-69
2023/01/22 05:25:02;;;;;;;2.50;1.58;;;-0.70;99.90;;;;;;5130833;27;20194;-70
2023/01/22 05:27:28;;;;;;;0.50;0.50;;;-0.70;99.90;;;;;;5130222;27;20312;-70
2023/01/22 05:29:57;;;;;;;2.15;2.05;;;-0.70;99.90;;;;;;5129731;27;20204;-69
2023/01/22 05:32:23;;;;;;;2.88;2.78;;;-0.70;99.90;;;;;;5130218;27;20205;-69
2023/01/22 05:34:50;;;;;;;2.10;1.90;;;-0.80;99.90;;;;;;5129974;27;20203;-70
2023/01/22 05:37:17;;;;;;;5.32;2.38;;;-0.70;99.90;;;;;;5122571;27;20703;-69
2023/01/22 05:39:44;;;;;;;1.85;1.77;;;-0.70;99.90;;;;;;5126094;27;20204;-68
2023/01/22 05:42:14;;;;;;;8.63;2.15;;;-0.60;99.90;;;;;;5128929;27;20694;-70
2023/01/22 05:44:41;;;;;;;1.63;1.60;;;-0.50;99.90;;;;;;5130706;27;20557;-69
2023/01/22 05:47:10;;;;;;;1.70;1.60;;;-0.60;99.90;;;;;;5130087;27;20263;-67
2023/01/22 05:49:36;;;;;;;0.80;0.80;;;-0.60;99.90;;;;;;5129412;27;20282;-69
2023/01/22 05:52:03;;;;;;;1.85;1.63;;;-0.60;99.90;;;;;;5130127;27;20219;-67
2023/01/22 05:54:30;;;;;;;5.35;3.20;;;-0.60;99.90;;;;;;5130048;27;20614;-69
2023/01/22 05:56:57;;;;;;;2.47;0.98;;;-0.70;99.90;;;;;;5129399;27;20215;-68
2023/01/22 05:59:24;;;;;;;1.08;1.05;;;-0.70;99.90;;;;;;5129346;27;20197;-68
2023/01/22 06:01:50;;;;;;;4.88;1.88;;;-0.70;99.90;;;;;;5129124;27;20239;-70
2023/01/22 06:04:18;;;;;;;1.00;0.80;;;-0.70;99.90;;;;;;5130241;27;20507;-69
2023/01/22 06:06:45;;;;;;;0.52;0.52;;;-0.60;99.90;;;;;;5129398;27;20221;-69
2023/01/22 06:09:13;;;;;;;4.63;4.20;;;-0.60;99.90;;;;;;5129149;27;20198;-68
2023/01/22 06:11:40;;;;;;;2.80;1.13;;;-0.50;99.90;;;;;;5129222;27;20827;-68
2023/01/22 06:14:06;;;;;;;1.00;0.90;;;-0.50;99.90;;;;;;5128769;27;20675;-69
2023/01/22 06:16:33;;;;;;;2.22;2.08;;;-0.50;99.90;;;;;;5128777;27;20231;-68
2023/01/22 06:19:00;;;;;;;3.10;1.70;;;-0.50;99.90;;;;;;5129529;27;20288;-68
2023/01/22 06:21:28;;;;;;;4.25;1.40;;;-0.60;99.90;;;;;;5128778;27;20232;-66
2023/01/22 06:23:55;;;;;;;0.50;0.50;;;-0.60;99.90;;;;;;5129639;27;20220;-68
2023/01/22 06:26:21;;;;;;;0.82;0.82;;;-0.60;99.90;;;;;;5129857;27;20221;-69
2023/01/22 06:28:48;;;;;;;4.38;1.38;;;-0.60;99.90;;;;;;5128224;27;20186;-68
2023/01/22 06:31:15;;;;;;;1.40;1.30;;;-0.60;99.90;;;;;;5128556;27;20228;-69
2023/01/22 06:33:42;;;;;;;2.15;1.15;;;-0.70;99.90;;;;;;5129804;27;20205;-69
2023/01/22 06:36:09;;;;;;;0.40;0.40;;;-0.60;99.90;;;;;;5129141;27;20232;-68
2023/01/22 06:38:38;;;;;;;4.57;1.90;;;-0.60;99.90;;;;;;5127638;27;20220;-69
2023/01/22 06:41:05;;;;;;;2.22;2.03;;;-0.60;99.90;;;;;;5110419;27;20228;-68
2023/01/22 06:43:31;;;;;;;1.77;1.65;;;-0.80;99.90;;;;;;5127034;27;20233;-67
2023/01/22 06:45:58;;;;;;;1.13;1.08;;;-0.60;99.90;;;;;;5108332;27;20726;-69
2023/01/22 06:48:25;;;;;;;1.05;1.05;;;-0.60;99.90;;;;;;5110479;27;20847;-69
2023/01/22 06:50:56;;;;;;;2.33;2.17;;;-0.60;99.90;;;;;;5128604;27;20224;-68
2023/01/22 06:53:23;;;;;;;2.05;1.17;;;-0.60;99.90;;;;;;5129386;27;20205;-69
2023/01/22 06:55:51;;;;;;;0.80;0.80;;;-0.80;99.90;;;;;;5128264;27;20240;-68
2023/01/22 06:58:18;;;;;;;1.48;1.48;;;-0.70;99.90;;;;;;5128158;27;20204;-69
2023/01/22 07:00:44;;;;;;;2.33;1.80;;;-0.60;99.90;;;;;;5128785;27;20217;-69
2023/01/22 07:03:12;;;;;;;1.50;1.40;;;-0.60;99.90;;;;;;5128788;27;20225;-69
2023/01/22 07:05:39;;;;;;;2.08;1.98;;;-0.60;99.90;;;;;;5128332;27;20285;-67
2023/01/22 07:08:05;;;;;;;2.30;2.20;;;-0.70;99.90;;;;;;5127912;27;20190;-69
2023/01/22 07:10:32;;;;;;;3.60;2.35;;;-0.70;99.90;;;;;;5127555;27;20587;-69
2023/01/22 07:13:03;;;;;;;2.50;2.35;;;-0.70;99.90;;;;;;5128979;27;20208;-69
2023/01/22 07:15:29;;;;;;;1.40;1.30;;;-0.60;99.90;;;;;;5128210;27;20311;-68
2023/01/22 07:17:56;;;;;;;2.40;1.67;;;-0.60;99.90;;;;;;5127416;27;20216;-68
2023/01/22 07:20:24;;;;;;;2.58;2.25;;;-0.50;99.90;;;;;;5127844;27;20304;-68
2023/01/22 07:22:51;;;;;;;1.17;1.08;;;-0.50;99.90;;;;;;5128606;27;20211;-68
2023/01/22 07:25:18;;;;;;;2.25;2.05;;;-0.50;99.90;;;;;;5127628;27;20246;-69
2023/01/22 07:27:45;;;;;;;0.77;0.77;;;-0.50;99.90;;;;;;5128233;27;20190;-69
2023/01/22 07:30:14;;;;;;;1.70;1.60;;;-0.40;99.90;;;;;;5127535;27;20199;-67
2023/01/22 07:32:41;;;;;;;1.52;1.23;;;-0.40;99.90;;;;;;5128739;28;20280;-69
2023/01/22 07:35:08;;;;;;;1.70;1.52;;;-0.40;99.90;;;;;;5128378;28;20605;-68
2023/01/22 07:37:36;;;;;;;3.65;2.70;;;-0.40;99.90;;;;;;5117675;28;20572;-68
2023/01/22 07:40:03;;;;;;;4.18;3.17;;;-0.30;99.90;;;;;;5119750;28;20197;-68
2023/01/22 07:42:30;;;;;;;4.35;1.73;;;-0.50;99.90;;;;;;5127843;28;20228;-68
2023/01/22 07:44:57;;;;;;;2.22;2.00;;;-0.50;99.90;;;;;;5128409;28;20208;-68
2023/01/22 07:47:25;;;;;;;4.50;1.17;;;-0.50;99.90;;;;;;5127933;28;20575;-68
2023/01/22 07:49:52;;;;;;;1.58;1.40;;;-0.40;99.90;;;;;;5127632;28;20194;-68
2023/01/22 07:52:18;;;;;;;1.60;1.00;;;-0.40;99.90;;;;;;5127582;28;20223;-68
2023/01/22 07:54:45;;;;;;;1.02;1.02;;;-0.40;99.90;;;;;;5128324;28;20185;-69
2023/01/22 07:57:14;;;;;;;2.35;1.75;;;-0.40;99.90;;;;;;5127888;28;20237;-68
2023/01/22 07:59:41;;;;;;;1.85;1.75;;;-0.40;99.90;;;;;;5127456;28;20189;-68
2023/01/22 08:02:11;;;;;;;1.67;1.48;;;-0.30;99.90;;;;;;5127806;28;20270;-68
2023/01/22 08:04:40;;;;;;;1.70;1.35;;;-0.30;99.90;;;;;;5111786;28;20197;-68
2023/01/22 08:07:09;;;;;;;4.20;2.92;;;-0.20;99.90;;;;;;5127807;28;20227;-68
2023/01/22 08:09:36;;;;;;;2.65;2.50;;;-0.30;99.90;;;;;;5127261;28;20220;-69
2023/01/22 08:12:04;;;;;;;5.13;1.83;;;-0.30;99.90;;;;;;5127726;28;20225;-68
2023/01/22 08:14:30;;;;;;;1.92;1.83;;;-0.30;99.90;;;;;;5127750;28;20203;-68
2023/01/22 08:16:57;;;;;;;2.85;1.45;;;-0.30;99.90;;;;;;5127305;28;20229;-68
2023/01/22 08:19:24;;;;;;;0.85;0.85;;;-0.40;99.90;;;;;;5126863;28;20201;-68
2023/01/22 08:21:52;;;;;;;1.88;1.33;;;-0.30;99.90;;;;;;5127165;28;20761;-69
2023/01/22 08:24:19;;;;;;;1.90;1.73;;;-0.30;99.90;;;;;;5127985;28;20205;-68
2023/01/22 08:26:46;;;;;;;2.53;2.10;;;-0.20;99.90;;;;;;5127596;28;20221;-68
2023/01/22 08:29:13;;;;;;;0.30;0.30;;;-0.30;99.90;;;;;;5127459;28;20622;-69
2023/01/22 08:31:39;;;;;;;9.30;2.20;;;-0.30;99.90;;;;;;5127048;28;20213;-68
2023/01/22 08:34:07;;;;;;;3.28;1.80;;;-0.30;99.90;;;;;;5127534;28;20213;-67
2023/01/22 08:36:34;;;;;;;1.25;1.15;;;-0.30;99.90;;;;;;5126991;27;20222;-67
2023/01/22 08:39:02;;;;;;;1.27;1.27;;;-0.20;99.90;;;;;;5125518;27;20197;-67
2023/01/22 08:41:28;;;;;;;1.33;1.20;;;-0.30;99.90;;;;;;5130006;27;20312;-69
2023/01/22 08:43:55;;;;;;;1.70;1.45;;;-0.40;99.90;;;;;;5131403;27;20223;-69
2023/01/22 08:46:22;;;;;;;6.75;2.15;;;-0.30;99.90;;;;;;5130298;27;20227;-69
2023/01/22 08:48:49;;;;;;;3.25;2.95;;;-0.20;99.90;;;;;;5130950;27;20711;-68
2023/01/22 08:51:16;;;;;;;1.42;1.33;;;-0.20;99.90;;;;;;5131305;27;20232;-69
2023/01/22 08:53:43;;;;;;;1.48;1.38;;;-0.20;99.90;;;;;;5131311;27;20196;-68
2023/01/22 08:56:11;;;;;;;1.60;1.52;;;-0.20;99.90;;;;;;5130996;27;20217;-68
2023/01/22 08:58:38;;;;;;;3.00;1.95;;;-0.50;99.90;;;;;;5130381;27;20207;-68
2023/01/22 09:01:05;;;;;;;0.30;0.30;;;-0.20;99.90;;;;;;5129976;27;20606;-68
2023/01/22 09:03:32;;;;;;;1.95;1.63;;;-0.20;99.90;;;;;;5131436;27;20232;-68
2023/01/22 09:05:59;;;;;;;6.47;2.97;;;-0.20;99.90;;;;;;5130641;27;20221;-69
2023/01/22 09:08:26;;;;;;;0.90;0.90;;;-0.20;99.90;;;;;;5130140;27;20593;-68
2023/01/22 09:10:52;;;;;;;5.22;2.10;;;-0.20;99.90;;;;;;5130606;27;20244;-68
2023/01/22 09:13:21;;;;;;;4.60;2.63;;;-0.10;99.90;;;;;;5131042;27;20195;-68
2023/01/22 09:15:47;;;;;;;1.63;1.63;;;-0.10;99.90;;;;;;5130236;27;20220;-69
2023/01/22 09:18:14;;;;;;;0.85;0.85;;;-0.10;99.90;;;;;;5129494;27;20569;-69
2023/01/22 09:20:41;;;;;;;2.45;1.60;;;0.00;99.90;;;;;;5130024;27;20236;-67
2023/01/22 09:23:08;;;;;;;2.25;1.80;;;0.00;99.90;;;;;;5130846;27;20764;-68
2023/01/22 09:25:35;;;;;;;2.05;1.70;;;-0.10;99.90;;;;;;5130317;27;20219;-69
2023/01/22 09:28:03;;;;;;;1.67;1.58;;;0.00;99.90;;;;;;5109629;28;20205;-70
2023/01/22 09:30:32;;;;;;;1.45;0.60;;;-0.10;99.90;;;;;;5121066;27;20221;-67
2023/01/22 09:32:59;;;;;;;2.58;1.08;;;0.00;99.90;;;;;;5130753;27;20200;-69
2023/01/22 09:35:26;;;;;;;1.40;1.30;;;0.10;99.90;;;;;;5130568;27;20312;-69
2023/01/22 09:37:53;;;;;;;5.18;1.50;;;0.00;99.90;;;;;;5117766;27;20563;-69
2023/01/22 09:40:26;;;;;;;2.13;2.03;;;-0.10;99.90;;;;;;5123285;27;20221;-69
2023/01/22 09:43:00;;;;;;;0.95;0.95;;;0.10;99.90;;;;;;5126935;27;20605;-68
2023/01/22 09:45:27;;;;;;;3.00;2.55;;;0.10;99.90;;;;;;5129727;27;20719;-68
2023/01/22 09:47:59;;;;;;;2.20;1.77;;;0.20;99.90;;;;;;5130571;27;20204;-68
2023/01/22 09:50:29;;;;;;;3.20;2.05;;;0.20;99.90;;;;;;5130183;27;20227;-67
2023/01/22 09:53:00;;;;;;;1.95;1.50;;;0.10;99.90;;;;;;5130021;27;20193;-68
2023/01/22 09:55:30;;;;;;;2.97;1.55;;;0.10;99.90;;;;;;5129964;27;20221;-69
2023/01/22 09:58:01;;;;;;;1.70;1.25;;;0.20;99.90;;;;;;5130357;27;20194;-69
2023/01/22 10:00:39;;;;;;;0.80;0.80;;;0.40;99.90;;;;;;5129316;27;20708;-67
2023/01/22 10:03:12;;;;;;;2.05;1.95;;;0.50;99.90;;;;;;5109599;28;20224;-70
2023/01/22 10:05:42;;;;;;;4.25;1.50;;;0.50;99.90;;;;;;5121561;27;20227;-69
2023/01/22 10:08:13;;;;;;;1.42;1.42;;;0.50;99.90;;;;;;5129391;27;20193;-69
2023/01/22 10:10:40;;;;;;;1.33;0.95;;;0.50;99.90;;;;;;5129443;27;20217;-69
2023/01/22 10:13:18;;;;;;;0.52;0.52;;;0.60;99.90;;;;;;5130023;27;20197;-69
2023/01/22 10:15:45;;;;;;;1.42;1.30;;;0.40;99.90;;;;;;5129443;27;20220;-69
2023/01/22 10:18:25;;;;;;;0.80;0.80;;;0.90;99.90;;;;;;5127334;27;20207;-69
2023/01/22 10:20:53;;;;;;;2.35;1.95;;;0.50;99.90;;;;;;5129263;27;20221;-69
2023/01/22 10:23:24;;;;;;;3.17;1.40;;;0.70;99.90;;;;;;5129923;27;20224;-69
2023/01/22 10:25:54;;;;;;;1.30;1.20;;;0.80;99.90;;;;;;5129876;27;20295;-69
2023/01/22 10:28:26;;;;;;;1.95;1.85;;;0.80;99.90;;;;;;5128237;27;20216;-69
2023/01/22 10:30:57;;;;;;;2.90;2.60;;;0.80;99.90;;;;;;5128519;27;20707;-69
2023/01/22 10:33:27;;;;;;;0.90;0.90;;;0.90;99.90;;;;;;5129900;27;20285;-69
2023/01/22 10:35:56;;;;;;;3.53;2.45;;;1.00;99.90;;;;;;5129323;27;20243;-69
2023/01/22 10:38:26;;;;;;;2.28;2.17;;;1.00;99.90;;;;;;5128596;27;20208;-70
2023/01/22 10:40:58;;;;;;;2.65;1.15;;;1.00;99.90;;;;;;5118941;27;20223;-69
2023/01/22 10:43:32;;;;;;;2.47;1.70;;;1.00;99.90;;;;;;5128822;27;20225;-69
2023/01/22 10:46:04;;;;;;;2.33;1.73;;;1.10;99.90;;;;;;5129013;27;20277;-69
2023/01/22 10:48:33;;;;;;;4.50;2.25;;;1.10;99.90;;;;;;5117001;27;20277;-68
2023/01/22 10:51:07;;;;;;;4.30;2.33;;;1.10;99.90;;;;;;5114322;27;20220;-69
2023/01/22 10:53:36;;;;;;;3.35;3.22;;;1.10;99.90;;;;;;5128822;27;20207;-69
2023/01/22 10:56:06;;;;;;;2.63;2.42;;;1.00;99.90;;;;;;5128630;27;20293;-69
2023/01/22 10:58:36;;;;;;;1.60;1.45;;;1.10;99.90;;;;;;5127967;27;20193;-69
2023/01/22 11:01:06;;;;;;;1.65;1.30;;;1.20;99.90;;;;;;5128336;27;20228;-69
2023/01/22 11:03:37;;;;;;;5.05;2.15;;;1.20;99.90;;;;;;5128854;27;20217;-69
2023/01/22 11:06:10;;;;;;;2.17;1.42;;;1.20;99.90;;;;;;5128287;27;20227;-69
2023/01/22 11:08:59;;;;;;;3.28;1.27;;;1.30;99.90;;;;;;5128139;27;20189;-69
2023/01/22 11:11:30;;;;;;;3.78;1.85;;;1.30;99.90;;;;;;5128748;27;20251;-69
2023/01/22 11:14:03;;;;;;;2.60;1.10;;;1.50;99.90;;;;;;5129009;27;20622;-69
2023/01/22 11:16:33;;;;;;;1.13;1.00;;;1.40;99.90;;;;;;5126757;27;20322;-68
2023/01/22 11:19:05;;;;;;;1.95;1.05;;;1.40;99.90;;;;;;5127898;27;20189;-69
2023/01/22 11:21:35;;;;;;;2.65;2.08;;;1.40;99.90;;;;;;5128287;27;20215;-69
2023/01/22 11:24:09;;;;;;;6.18;2.47;;;1.30;99.90;;;;;;5127987;27;20239;-69
2023/01/22 11:27:06;;;;;;;1.55;1.50;;;1.30;99.90;;;;;;5127957;27;20315;-69
2023/01/22 11:30:02;;;;;;;3.15;1.35;;;1.10;99.90;;;;;;5127937;27;20659;-69
2023/01/22 11:32:51;;;;;;;2.05;1.40;;;1.00;99.90;;;;;;5127831;27;20193;-69
2023/01/22 11:35:26;;;;;;;2.75;2.17;;;1.10;99.90;;;;;;5127822;28;20201;-69
2023/01/22 11:38:06;;;;;;;3.20;1.75;;;1.20;99.90;;;;;;5128281;28;20211;-69
2023/01/22 11:40:35;;;;;;;2.55;1.23;;;1.20;99.90;;;;;;5126944;28;20216;-69
2023/01/22 11:43:17;;;;;;;0.88;0.88;;;1.30;99.90;;;;;;5112090;28;20212;-69
2023/01/22 11:46:16;;;;;;;7.88;2.30;;;1.30;99.90;;;;;;5107369;28;20253;-69
2023/01/22 11:49:00;;;;;;;2.45;1.90;;;1.40;99.90;;;;;;5109618;28;20201;-70
2023/01/22 11:51:36;;;;;;;2.00;1.90;;;1.50;99.90;;;;;;5117324;28;20225;-70
2023/01/22 11:54:17;;;;;;;3.53;2.25;;;1.50;99.90;;;;;;5107764;28;20594;-68
2023/01/22 11:56:59;;;;;;;1.15;1.05;;;1.60;99.90;;;;;;5117359;28;20232;-70
2023/01/22 11:59:37;;;;;;;1.98;1.80;;;1.60;99.90;;;;;;5123261;28;20204;-69
2023/01/22 12:02:20;;;;;;;3.70;1.88;;;1.50;99.90;;;;;;5119426;28;20593;-70
2023/01/22 12:05:14;;;;;;;1.27;1.23;;;1.40;99.90;;;;;;5128370;28;20728;-70
2023/01/22 12:08:02;;;;;;;2.55;2.35;;;1.50;99.90;;;;;;5123951;28;20189;-69
2023/01/22 12:10:51;;;;;;;1.83;1.73;;;1.60;99.90;;;;;;5127816;28;20232;-70
2023/01/22 12:13:41;;;;;;;4.53;3.33;;;1.60;99.90;;;;;;5131087;27;20197;-71
2023/01/22 12:16:19;;;;;;;2.40;1.08;;;1.60;99.90;;;;;;5131786;27;20232;-69
2023/01/22 12:19:14;;;;;;;3.30;2.22;;;1.50;99.90;;;;;;5130803;27;20200;-69
2023/01/22 12:21:55;;;;;;;0.95;0.73;;;1.30;99.90;;;;;;5131392;27;20217;-69
2023/01/22 12:24:29;;;;;;;4.03;1.08;;;1.10;99.90;;;;;;5131881;27;20228;-69
2023/01/22 12:27:00;;;;;;;1.33;1.27;;;1.30;99.90;;;;;;5131825;27;20217;-67
2023/01/22 12:29:33;;;;;;;0.82;0.82;;;1.30;99.90;;;;;;5130646;27;20208;-69
2023/01/22 12:32:07;;;;;;;1.55;1.17;;;1.30;99.90;;;;;;5131766;27;20228;-70
2023/01/22 12:34:39;;;;;;;1.80;1.55;;;1.40;99.90;;;;;;5131946;27;20252;-68
2023/01/22 12:37:07;;;;;;;1.50;1.38;;;1.40;99.90;;;;;;5130673;27;20233;-69
2023/01/22 12:39:39;;;;;;;2.13;2.03;;;1.40;99.90;;;;;;5119002;27;20228;-69
2023/01/22 12:42:21;;;;;;;0.93;0.88;;;1.50;99.90;;;;;;5123256;27;20608;-69
2023/01/22 12:44:56;;;;;;;1.65;1.55;;;1.50;99.90;;;;;;5119368;27;20222;-68
2023/01/22 12:47:30;;;;;;;1.00;0.82;;;1.50;99.90;;;;;;5110788;27;20229;-68
2023/01/22 12:49:57;;;;;;;0.75;0.75;;;1.50;99.90;;;;;;5112925;27;20201;-68
2023/01/22 12:52:30;;;;;;;0.63;0.63;;;1.50;99.90;;;;;;5128807;27;20221;-69
2023/01/22 12:55:00;;;;;;;1.00;1.00;;;1.60;99.90;;;;;;5131249;27;20193;-68
2023/01/22 12:57:36;;;;;;;1.30;1.20;;;1.50;99.90;;;;;;5129622;27;20217;-69
2023/01/22 13:00:12;;;;;;;1.75;1.27;;;1.50;99.90;;;;;;5131154;27;20201;-68
2023/01/22 13:02:39;;;;;;;1.63;1.30;;;1.60;99.90;;;;;;5112030;27;20209;-70
2023/01/22 13:05:28;;;;;;;2.40;1.05;;;1.60;99.90;;;;;;5110798;28;20228;-68
2023/01/22 13:08:03;;;;;;;3.85;1.60;;;1.60;99.90;;;;;;5113235;27;20203;-68
2023/01/22 13:10:33;;;;;;;1.88;1.27;;;1.50;99.90;;;;;;5130374;27;20590;-69